Time;durP1;ratioP1;P1;durP2;ratioP2;P2;SDS_P1;SDS_P2;PMS_P1;PMS_P2;Temp;Humidity;BMP_temperature;BMP_pressure;BME280_temperature;BME280_humidity;BME280_pressure;Samples;Min_cycle;Max_cycle;Signal;HPM_P1;HPM_P2
2022/10/24 00:00:11;;;;;;;5.03;1.75;;;14.90;99.90;;;;;;7358144;19;20014;-50
2022/10/24 00:02:38;;;;;;;4.45;1.98;;;14.80;99.90;;;;;;7356715;19;20498;-48
2022/10/24 00:05:04;;;;;;;5.60;1.80;;;14.80;99.90;;;;;;7360018;19;20015;-51
2022/10/24 00:07:30;;;;;;;4.93;1.80;;;14.80;99.90;;;;;;7359535;19;20026;-48
2022/10/24 00:09:56;;;;;;;4.82;1.92;;;14.70;99.90;;;;;;7358104;19;20029;-48
2022/10/24 00:12:22;;;;;;;4.38;1.58;;;14.70;99.90;;;;;;7360264;19;20039;-47
2022/10/24 00:14:49;;;;;;;8.23;3.65;;;14.70;99.90;;;;;;7356453;19;20022;-50
2022/10/24 00:17:15;;;;;;;4.03;1.88;;;14.70;99.90;;;;;;7359128;19;20047;-49
2022/10/24 00:19:41;;;;;;;5.82;2.72;;;14.70;99.90;;;;;;7366828;19;20063;-52
2022/10/24 00:22:07;;;;;;;5.28;2.03;;;14.60;99.90;;;;;;7366276;19;20030;-50
2022/10/24 00:24:33;;;;;;;4.90;1.77;;;14.60;99.90;;;;;;7366215;19;20022;-51
2022/10/24 00:27:00;;;;;;;5.20;1.73;;;14.60;99.90;;;;;;7361873;19;20106;-53
2022/10/24 00:29:26;;;;;;;3.97;2.10;;;14.70;99.90;;;;;;7369906;19;20026;-52
2022/10/24 00:31:53;;;;;;;6.10;2.22;;;14.60;99.90;;;;;;7367967;19;20818;-50
2022/10/24 00:34:19;;;;;;;6.07;2.50;;;14.70;99.90;;;;;;7372038;19;20462;-50
2022/10/24 00:36:45;;;;;;;5.13;1.83;;;14.70;99.90;;;;;;7366748;19;20018;-51
2022/10/24 00:39:12;;;;;;;4.43;1.80;;;14.70;99.90;;;;;;7367159;19;20022;-52
2022/10/24 00:41:43;;;;;;;3.67;1.95;;;14.70;99.90;;;;;;7368624;19;20015;-52
2022/10/24 00:44:30;;;;;;;3.47;1.50;;;14.70;99.90;;;;;;7370831;19;20014;-51
2022/10/24 00:47:16;;;;;;;4.93;2.13;;;14.70;99.90;;;;;;7365920;19;20019;-51
2022/10/24 00:50:08;;;;;;;5.32;1.77;;;14.70;99.90;;;;;;7364296;19;21443;-51
2022/10/24 00:52:39;;;;;;;4.93;2.10;;;14.70;99.90;;;;;;7369939;19;20057;-52
2022/10/24 00:55:07;;;;;;;5.77;2.00;;;14.70;99.90;;;;;;7368883;19;20467;-49
2022/10/24 00:57:43;;;;;;;5.28;2.20;;;14.80;99.90;;;;;;7367852;19;20033;-50
2022/10/24 01:00:14;;;;;;;5.32;2.22;;;14.80;99.90;;;;;;7366821;19;20014;-48
2022/10/24 01:02:41;;;;;;;5.75;3.13;;;14.80;99.90;;;;;;7366262;19;20484;-50
2022/10/24 01:05:10;;;;;;;5.38;2.58;;;14.90;99.90;;;;;;7367468;19;20391;-52
2022/10/24 01:08:00;;;;;;;5.03;2.50;;;14.90;99.90;;;;;;7364466;19;20033;-53
2022/10/24 01:10:41;;;;;;;8.80;2.10;;;15.00;99.90;;;;;;7367728;19;20521;-52
2022/10/24 01:13:42;;;;;;;4.53;2.45;;;15.00;99.90;;;;;;7366808;19;20015;-51
2022/10/24 01:16:16;;;;;;;6.55;2.20;;;15.10;99.90;;;;;;7364606;19;20028;-51
2022/10/24 01:19:12;;;;;;;9.85;3.45;;;15.10;99.90;;;;;;7367428;19;20048;-52
2022/10/24 01:21:50;;;;;;;5.15;2.30;;;15.20;99.90;;;;;;7362796;19;20046;-52
2022/10/24 01:24:30;;;;;;;5.38;2.30;;;15.20;99.90;;;;;;7365541;19;20125;-53
2022/10/24 01:27:23;;;;;;;5.15;2.40;;;15.20;99.90;;;;;;7363223;19;20668;-53
2022/10/24 01:30:12;;;;;;;4.57;2.17;;;15.20;99.90;;;;;;7364156;19;20007;-52
2022/10/24 01:32:58;;;;;;;5.40;2.28;;;15.10;99.90;;;;;;7367472;19;20014;-48
2022/10/24 01:35:39;;;;;;;8.18;2.55;;;15.20;99.90;;;;;;7377060;19;20057;-51
2022/10/24 01:38:24;;;;;;;6.90;2.40;;;15.10;99.90;;;;;;7369605;19;20392;-53
2022/10/24 01:41:05;;;;;;;6.85;2.58;;;15.20;99.90;;;;;;7376359;19;20018;-50
2022/10/24 01:43:42;;;;;;;12.80;3.10;;;15.20;99.90;;;;;;7373971;19;20025;-49
2022/10/24 01:46:12;;;;;;;9.02;2.38;;;15.10;99.90;;;;;;7375150;19;20045;-46
2022/10/24 01:48:44;;;;;;;6.63;2.85;;;15.00;99.90;;;;;;7371221;19;20607;-51
2022/10/24 01:51:13;;;;;;;5.55;2.33;;;15.00;99.90;;;;;;7375326;19;20022;-49
2022/10/24 01:53:42;;;;;;;8.80;2.78;;;15.00;99.90;;;;;;7371891;19;20052;-49
2022/10/24 01:56:09;;;;;;;5.65;2.80;;;15.00;99.90;;;;;;7371159;19;20345;-51
2022/10/24 01:58:35;;;;;;;6.18;2.63;;;15.00;99.90;;;;;;7370388;19;20328;-46
2022/10/24 02:01:07;;;;;;;7.20;2.40;;;15.00;99.90;;;;;;7373221;19;20018;-49
2022/10/24 02:03:39;;;;;;;5.32;1.95;;;15.00;99.90;;;;;;7368555;19;20018;-48
2022/10/24 02:06:14;;;;;;;6.72;2.22;;;15.00;99.90;;;;;;7366544;19;20022;-48
2022/10/24 02:08:45;;;;;;;4.90;2.55;;;15.00;99.90;;;;;;7365480;19;20497;-50
2022/10/24 02:11:11;;;;;;;5.38;2.25;;;14.90;99.90;;;;;;7368532;19;20098;-49
2022/10/24 02:13:46;;;;;;;11.07;2.63;;;15.00;99.90;;;;;;7372224;19;20074;-53
2022/10/24 02:16:17;;;;;;;3.65;2.20;;;15.00;99.90;;;;;;7373501;19;20021;-49
2022/10/24 02:18:43;;;;;;;6.55;2.72;;;14.90;99.90;;;;;;7365527;19;20039;-47
2022/10/24 02:21:29;;;;;;;6.22;2.20;;;15.00;99.90;;;;;;7375007;19;20018;-50
2022/10/24 02:24:04;;;;;;;8.52;3.28;;;15.00;99.90;;;;;;7368891;19;20022;-47
2022/10/24 02:26:30;;;;;;;5.43;2.28;;;15.00;99.90;;;;;;7369153;19;20105;-52
2022/10/24 02:29:00;;;;;;;8.02;2.70;;;14.90;99.90;;;;;;7370731;19;20900;-50
2022/10/24 02:31:32;;;;;;;6.20;2.50;;;15.00;99.90;;;;;;7371731;19;20485;-50
2022/10/24 02:34:02;;;;;;;5.85;2.35;;;14.90;99.90;;;;;;7371021;19;20011;-50
2022/10/24 02:36:31;;;;;;;8.20;2.47;;;14.90;99.90;;;;;;7371456;19;20026;-50
2022/10/24 02:38:59;;;;;;;5.32;2.67;;;14.80;99.90;;;;;;7366974;19;20015;-50
2022/10/24 02:41:29;;;;;;;13.00;2.83;;;14.80;99.90;;;;;;7368542;19;20478;-46
2022/10/24 02:43:56;;;;;;;8.05;2.47;;;14.80;99.90;;;;;;7366980;19;20045;-50
2022/10/24 02:46:23;;;;;;;4.80;2.13;;;14.70;99.90;;;;;;7375393;19;20026;-51
2022/10/24 02:48:56;;;;;;;4.97;2.17;;;14.70;99.90;;;;;;7371811;19;20368;-48
2022/10/24 02:51:26;;;;;;;10.85;2.67;;;14.70;99.90;;;;;;7368326;19;20018;-50
2022/10/24 02:53:53;;;;;;;8.10;2.70;;;14.70;99.90;;;;;;7368613;19;20026;-50
2022/10/24 02:56:19;;;;;;;5.95;2.33;;;14.80;99.90;;;;;;7374285;19;20010;-52
2022/10/24 02:58:45;;;;;;;7.30;2.28;;;14.80;99.90;;;;;;7368432;19;20569;-50
2022/10/24 03:01:11;;;;;;;5.85;2.33;;;14.80;99.90;;;;;;7369552;19;20023;-52
2022/10/24 03:03:38;;;;;;;6.88;2.40;;;14.70;99.90;;;;;;7368463;19;20524;-52
2022/10/24 03:06:04;;;;;;;7.80;2.40;;;14.70;99.90;;;;;;7366676;19;20494;-55
2022/10/24 03:08:30;;;;;;;7.03;2.20;;;14.60;99.90;;;;;;7373154;19;20023;-52
2022/10/24 03:10:56;;;;;;;6.15;2.28;;;14.60;99.90;;;;;;7368361;19;20721;-51
2022/10/24 03:13:23;;;;;;;8.05;2.20;;;14.60;99.90;;;;;;7367867;19;20141;-52
2022/10/24 03:15:49;;;;;;;7.43;2.38;;;14.60;99.90;;;;;;7366507;19;20019;-51
2022/10/24 03:18:15;;;;;;;7.95;2.17;;;14.60;99.90;;;;;;7368027;19;20093;-49
2022/10/24 03:20:41;;;;;;;5.45;2.20;;;14.60;99.90;;;;;;7369610;19;20026;-52
2022/10/24 03:23:07;;;;;;;9.75;2.63;;;14.60;99.90;;;;;;7367624;19;20018;-48
2022/10/24 03:25:34;;;;;;;5.90;2.40;;;14.70;99.90;;;;;;7366031;19;20010;-51
2022/10/24 03:28:00;;;;;;;4.82;2.47;;;14.70;99.90;;;;;;7369446;19;20014;-51
2022/10/24 03:30:26;;;;;;;9.05;3.00;;;14.60;99.90;;;;;;7371987;19;20018;-51
2022/10/24 03:32:53;;;;;;;6.38;2.40;;;14.70;99.90;;;;;;7369202;19;20018;-52
2022/10/24 03:35:19;;;;;;;6.47;2.67;;;14.70;99.90;;;;;;7371338;19;20024;-50
2022/10/24 03:37:46;;;;;;;8.27;2.65;;;14.70;99.90;;;;;;7365953;19;20426;-50
2022/10/24 03:40:12;;;;;;;8.02;2.65;;;14.70;99.90;;;;;;7369068;19;20516;-50
2022/10/24 03:42:38;;;;;;;6.15;2.17;;;14.60;99.90;;;;;;7369584;19;20520;-46
2022/10/24 03:45:05;;;;;;;6.63;2.55;;;14.60;99.90;;;;;;7364689;19;20037;-45
2022/10/24 03:47:31;;;;;;;7.78;3.05;;;14.70;99.90;;;;;;7369854;19;20026;-46
2022/10/24 03:49:57;;;;;;;5.70;2.50;;;14.70;99.90;;;;;;7369515;19;20417;-49
2022/10/24 03:52:24;;;;;;;7.05;2.25;;;14.70;99.90;;;;;;7371433;19;20401;-45
2022/10/24 03:54:50;;;;;;;8.82;2.50;;;14.60;99.90;;;;;;7369121;19;20018;-49
2022/10/24 03:57:16;;;;;;;7.93;2.38;;;14.60;99.90;;;;;;7368707;19;20026;-49
2022/10/24 03:59:42;;;;;;;8.93;2.20;;;14.60;99.90;;;;;;7368607;19;20615;-50
2022/10/24 04:02:08;;;;;;;5.57;2.17;;;14.60;99.90;;;;;;7364625;19;20416;-52
2022/10/24 04:04:35;;;;;;;6.50;2.22;;;14.70;99.90;;;;;;7367061;19;20034;-50
2022/10/24 04:07:01;;;;;;;8.60;2.45;;;14.60;99.90;;;;;;7368335;19;20043;-50
2022/10/24 04:09:27;;;;;;;7.28;2.40;;;14.50;99.90;;;;;;7367728;19;20025;-50
2022/10/24 04:11:54;;;;;;;6.75;2.13;;;14.40;99.90;;;;;;7367157;19;20026;-50
2022/10/24 04:14:20;;;;;;;5.28;2.00;;;14.40;99.90;;;;;;7367101;19;20068;-53
2022/10/24 04:16:46;;;;;;;7.30;2.10;;;14.40;99.90;;;;;;7365584;19;20021;-53
2022/10/24 04:19:16;;;;;;;4.10;1.65;;;14.40;99.90;;;;;;7369023;19;20444;-51
2022/10/24 04:21:42;;;;;;;7.00;2.20;;;14.40;99.90;;;;;;7365048;19;20018;-48
2022/10/24 04:24:10;;;;;;;4.82;2.22;;;14.50;99.90;;;;;;7362072;19;20068;-52
2022/10/24 04:26:36;;;;;;;6.28;2.45;;;14.50;99.90;;;;;;7366689;19;20041;-51
2022/10/24 04:29:02;;;;;;;5.60;1.80;;;14.50;99.90;;;;;;7366430;19;20019;-51
2022/10/24 04:31:28;;;;;;;4.53;1.75;;;14.50;99.90;;;;;;7367822;19;20018;-53
2022/10/24 04:33:55;;;;;;;11.90;2.20;;;14.50;99.90;;;;;;7358738;19;20017;-47
2022/10/24 04:36:21;;;;;;;7.20;2.22;;;14.40;99.90;;;;;;7369703;19;20022;-48
2022/10/24 04:38:47;;;;;;;7.32;2.28;;;14.50;99.90;;;;;;7365130;19;20031;-52
2022/10/24 04:41:14;;;;;;;5.72;2.08;;;14.40;99.90;;;;;;7368241;19;20023;-50
2022/10/24 04:43:40;;;;;;;4.47;2.28;;;14.40;99.90;;;;;;7361472;19;20030;-51
2022/10/24 04:46:07;;;;;;;5.45;1.90;;;14.40;99.90;;;;;;7367028;19;20018;-53
2022/10/24 04:48:33;;;;;;;5.50;1.88;;;14.50;99.90;;;;;;7364394;19;20022;-54
2022/10/24 04:51:00;;;;;;;5.93;1.70;;;14.60;99.90;;;;;;7358673;19;20094;-54
2022/10/24 04:53:26;;;;;;;5.35;2.08;;;14.60;99.90;;;;;;7359934;19;20025;-54
2022/10/24 04:55:53;;;;;;;7.90;2.00;;;14.50;99.90;;;;;;7361599;19;20019;-52
2022/10/24 04:58:19;;;;;;;5.82;2.38;;;14.60;99.90;;;;;;7364350;19;20086;-50
2022/10/24 05:00:48;;;;;;;4.15;1.63;;;14.50;99.90;;;;;;7368150;19;20021;-52
2022/10/24 05:03:16;;;;;;;4.25;1.63;;;14.50;99.90;;;;;;7369780;19;20438;-48
2022/10/24 05:05:43;;;;;;;5.80;1.83;;;14.50;99.90;;;;;;7369858;19;20493;-50
2022/10/24 05:08:09;;;;;;;7.75;2.15;;;14.50;99.90;;;;;;7376258;19;20047;-50
2022/10/24 05:10:36;;;;;;;4.43;1.63;;;14.50;99.90;;;;;;7374661;19;20057;-54
2022/10/24 05:13:02;;;;;;;7.53;2.20;;;14.60;99.90;;;;;;7376128;19;20397;-53
2022/10/24 05:15:29;;;;;;;6.07;1.77;;;14.50;99.90;;;;;;7370441;19;20007;-53
2022/10/24 05:17:56;;;;;;;8.82;2.00;;;14.60;99.90;;;;;;7366596;19;20703;-54
2022/10/24 05:20:22;;;;;;;5.20;1.83;;;14.60;99.90;;;;;;7367863;19;20022;-55
2022/10/24 05:22:49;;;;;;;3.65;1.50;;;14.50;99.90;;;;;;7364285;19;21087;-53
2022/10/24 05:25:15;;;;;;;7.80;1.40;;;14.50;99.90;;;;;;7370122;19;20042;-51
2022/10/24 05:27:41;;;;;;;5.70;2.15;;;14.40;99.90;;;;;;7364779;19;20035;-54
2022/10/24 05:30:08;;;;;;;5.97;1.70;;;14.40;99.90;;;;;;7368840;19;20023;-54
2022/10/24 05:32:34;;;;;;;5.40;1.40;;;14.30;99.90;;;;;;7367814;19;20015;-52
2022/10/24 05:35:02;;;;;;;5.18;1.98;;;14.40;99.90;;;;;;7366879;19;20018;-53
2022/10/24 05:37:28;;;;;;;6.18;2.30;;;14.30;99.90;;;;;;7366750;19;20694;-53
2022/10/24 05:39:54;;;;;;;5.60;1.77;;;14.30;99.90;;;;;;7363014;19;20042;-55
2022/10/24 05:42:21;;;;;;;8.25;1.80;;;14.20;99.90;;;;;;7364837;19;20023;-55
2022/10/24 05:44:47;;;;;;;5.95;1.98;;;14.20;99.90;;;;;;7365197;19;20027;-48
2022/10/24 05:47:13;;;;;;;6.95;1.60;;;14.10;99.90;;;;;;7367794;19;20547;-54
2022/10/24 05:49:40;;;;;;;8.40;1.95;;;14.20;99.90;;;;;;7362001;19;20030;-54
2022/10/24 05:52:06;;;;;;;4.35;1.52;;;14.30;99.90;;;;;;7369097;19;20434;-47
2022/10/24 05:54:32;;;;;;;3.28;1.40;;;14.30;99.90;;;;;;7367444;19;20018;-49
2022/10/24 05:56:59;;;;;;;6.75;1.50;;;14.30;99.90;;;;;;7364233;19;20046;-52
2022/10/24 05:59:25;;;;;;;5.55;1.88;;;14.30;99.90;;;;;;7360631;19;20054;-54
2022/10/24 06:01:51;;;;;;;5.93;2.08;;;14.50;99.90;;;;;;7365957;19;20021;-54
2022/10/24 06:04:17;;;;;;;4.03;1.58;;;14.50;99.90;;;;;;7365101;19;20019;-50
2022/10/24 06:06:44;;;;;;;5.22;1.30;;;14.50;99.90;;;;;;7358928;19;20599;-50
2022/10/24 06:09:12;;;;;;;6.70;2.25;;;14.60;99.90;;;;;;7369883;19;20029;-55
2022/10/24 06:11:38;;;;;;;7.45;1.80;;;14.60;99.90;;;;;;7370592;19;20018;-46
2022/10/24 06:14:05;;;;;;;5.60;1.60;;;14.60;99.90;;;;;;7372056;19;20539;-47
2022/10/24 06:16:32;;;;;;;6.90;2.45;;;14.60;99.90;;;;;;7370019;19;20056;-55
2022/10/24 06:18:59;;;;;;;4.88;1.45;;;14.60;99.90;;;;;;7371670;19;20014;-52
2022/10/24 06:21:26;;;;;;;6.25;1.40;;;14.60;99.90;;;;;;7372701;19;20018;-51
2022/10/24 06:23:52;;;;;;;4.45;1.67;;;14.60;99.90;;;;;;7376612;19;20043;-48
2022/10/24 06:26:19;;;;;;;6.50;1.60;;;14.60;99.90;;;;;;7375560;19;20015;-52
2022/10/24 06:28:45;;;;;;;7.78;1.70;;;14.60;99.90;;;;;;7371325;19;20022;-50
2022/10/24 06:31:12;;;;;;;3.63;1.60;;;14.60;99.90;;;;;;7371162;19;20018;-52
2022/10/24 06:33:39;;;;;;;5.55;1.40;;;14.70;99.90;;;;;;7370026;19;20518;-50
2022/10/24 06:36:08;;;;;;;5.75;1.95;;;14.70;99.90;;;;;;7369669;19;20412;-51
2022/10/24 06:38:35;;;;;;;6.75;2.28;;;14.70;99.90;;;;;;7372398;19;20599;-48
2022/10/24 06:41:07;;;;;;;5.30;1.45;;;14.70;99.90;;;;;;7372821;19;20025;-56
2022/10/24 06:43:33;;;;;;;5.30;2.47;;;14.70;99.90;;;;;;7374735;19;20018;-47
2022/10/24 06:46:04;;;;;;;7.28;1.60;;;14.60;99.90;;;;;;7369273;19;20046;-48
2022/10/24 06:48:31;;;;;;;3.97;1.75;;;14.60;99.90;;;;;;7376153;19;20015;-50
2022/10/24 06:50:57;;;;;;;7.68;1.90;;;14.70;99.90;;;;;;7371677;19;20026;-47
2022/10/24 06:53:24;;;;;;;4.93;1.80;;;14.50;99.90;;;;;;7373739;19;20018;-49
2022/10/24 06:55:50;;;;;;;7.68;1.80;;;14.50;99.90;;;;;;7369575;19;20014;-48
2022/10/24 06:58:16;;;;;;;3.75;1.60;;;14.50;99.90;;;;;;7375303;19;20043;-46
2022/10/24 07:00:42;;;;;;;10.85;2.05;;;14.50;99.90;;;;;;7372831;19;20022;-46
2022/10/24 07:03:14;;;;;;;4.93;1.77;;;14.50;99.90;;;;;;7373288;19;20006;-50
2022/10/24 07:05:40;;;;;;;6.75;1.98;;;14.50;99.90;;;;;;7367757;19;20025;-51
2022/10/24 07:08:07;;;;;;;7.95;2.72;;;14.50;99.90;;;;;;7365200;19;20029;-51
2022/10/24 07:10:34;;;;;;;5.15;1.52;;;14.60;99.90;;;;;;7367036;19;20010;-52
2022/10/24 07:13:00;;;;;;;5.40;1.77;;;14.70;99.90;;;;;;7366370;19;20141;-48
2022/10/24 07:15:26;;;;;;;8.75;2.72;;;14.80;99.90;;;;;;7362847;19;20022;-48
2022/10/24 07:17:53;;;;;;;3.80;1.52;;;14.90;99.90;;;;;;7364004;19;20499;-46
2022/10/24 07:20:19;;;;;;;6.82;1.40;;;14.90;99.90;;;;;;7357638;19;20014;-44
2022/10/24 07:22:45;;;;;;;5.78;1.63;;;15.00;99.90;;;;;;7368602;19;20018;-48
2022/10/24 07:25:13;;;;;;;3.75;1.25;;;15.00;99.90;;;;;;7371611;19;20496;-49
2022/10/24 07:27:39;;;;;;;4.97;1.13;;;15.10;99.90;;;;;;7374488;19;20482;-52
2022/10/24 07:30:07;;;;;;;7.63;1.70;;;15.10;99.90;;;;;;7372848;19;20018;-51
2022/10/24 07:32:34;;;;;;;7.50;1.23;;;15.10;99.90;;;;;;7372286;19;20014;-51
2022/10/24 07:35:00;;;;;;;5.95;1.85;;;15.20;99.90;;;;;;7368847;19;20053;-51
2022/10/24 07:37:27;;;;;;;4.55;1.38;;;15.30;99.90;;;;;;7372585;19;20010;-49
2022/10/24 07:39:53;;;;;;;6.35;1.40;;;15.40;99.90;;;;;;7369979;19;20448;-50
2022/10/24 07:42:20;;;;;;;3.90;1.33;;;15.40;99.90;;;;;;7374978;19;20018;-47
2022/10/24 07:44:46;;;;;;;4.50;1.67;;;15.40;99.90;;;;;;7371864;19;20010;-47
2022/10/24 07:47:12;;;;;;;5.63;2.28;;;15.40;99.90;;;;;;7369796;19;20014;-55
2022/10/24 07:49:39;;;;;;;5.95;1.38;;;15.70;99.90;;;;;;7372572;19;20018;-56
2022/10/24 07:52:05;;;;;;;9.93;1.85;;;15.80;99.90;;;;;;7371739;19;20026;-56
2022/10/24 07:54:31;;;;;;;3.85;1.20;;;15.80;99.90;;;;;;7368485;19;20022;-56
2022/10/24 07:56:57;;;;;;;7.90;2.25;;;15.80;99.90;;;;;;7368704;19;20371;-55
2022/10/24 07:59:24;;;;;;;7.88;2.17;;;15.90;99.90;;;;;;7367459;19;20415;-54
2022/10/24 08:01:53;;;;;;;9.10;1.75;;;16.00;99.90;;;;;;7369135;19;20500;-51
2022/10/24 08:04:19;;;;;;;8.10;2.42;;;16.00;99.90;;;;;;7370210;19;20105;-50
2022/10/24 08:06:45;;;;;;;4.90;1.58;;;16.00;99.90;;;;;;7373315;19;20015;-55
2022/10/24 08:09:11;;;;;;;7.03;1.80;;;16.20;99.90;;;;;;7367881;19;21157;-46
2022/10/24 08:11:39;;;;;;;7.00;1.67;;;16.30;99.90;;;;;;7371819;19;20018;-55
2022/10/24 08:14:05;;;;;;;4.22;1.10;;;16.50;99.90;;;;;;7371567;19;20078;-55
2022/10/24 08:16:32;;;;;;;4.68;1.63;;;16.40;99.90;;;;;;7372298;19;20868;-55
2022/10/24 08:18:58;;;;;;;8.30;1.63;;;16.40;99.90;;;;;;7370957;19;20014;-55
2022/10/24 08:21:25;;;;;;;6.45;2.25;;;16.40;99.90;;;;;;7367252;19;20078;-54
2022/10/24 08:23:52;;;;;;;7.75;2.28;;;16.40;99.90;;;;;;7367364;19;20035;-55
2022/10/24 08:26:22;;;;;;;8.30;2.28;;;16.50;99.90;;;;;;7366508;19;20022;-55
2022/10/24 08:28:49;;;;;;;6.13;1.45;;;16.60;99.90;;;;;;7363321;19;20539;-56
2022/10/24 08:31:21;;;;;;;14.35;2.58;;;16.50;99.90;;;;;;7366041;19;20043;-56
2022/10/24 08:33:50;;;;;;;7.97;1.83;;;16.50;99.90;;;;;;7368979;19;20561;-56
2022/10/24 08:36:30;;;;;;;11.55;2.05;;;16.50;99.90;;;;;;7370672;19;20041;-56
2022/10/24 08:38:58;;;;;;;5.22;1.40;;;16.50;99.90;;;;;;7371792;19;20097;-56
2022/10/24 08:41:45;;;;;;;5.30;1.40;;;16.90;99.90;;;;;;7368949;19;20026;-57
2022/10/24 08:44:31;;;;;;;6.15;1.27;;;17.20;99.90;;;;;;7377518;19;20017;-56
2022/10/24 08:47:33;;;;;;;9.68;1.90;;;17.30;99.90;;;;;;7376750;19;20018;-56
2022/10/24 08:50:21;;;;;;;7.22;1.50;;;17.30;99.90;;;;;;7373485;19;20038;-57
2022/10/24 08:52:50;;;;;;;6.00;1.30;;;17.70;99.90;;;;;;7366921;19;20026;-56
2022/10/24 08:55:20;;;;;;;5.72;1.50;;;18.30;99.90;;;;;;7371878;19;20007;-57
2022/10/24 08:57:51;;;;;;;5.32;1.13;;;18.40;99.90;;;;;;7374315;19;20010;-57
2022/10/24 09:00:21;;;;;;;5.90;1.63;;;18.00;99.90;;;;;;7370719;19;20451;-57
2022/10/24 09:03:19;;;;;;;8.13;1.17;;;17.60;99.90;;;;;;7375877;19;20311;-58
2022/10/24 09:05:49;;;;;;;6.53;1.95;;;17.30;99.90;;;;;;7373516;19;20082;-57
2022/10/24 09:08:26;;;;;;;5.07;1.40;;;17.50;99.90;;;;;;7378383;19;20081;-57
2022/10/24 09:11:01;;;;;;;7.88;1.52;;;17.70;99.90;;;;;;7375068;19;20373;-57
2022/10/24 09:13:29;;;;;;;7.35;2.25;;;17.60;99.90;;;;;;7376918;19;20469;-57
2022/10/24 09:15:56;;;;;;;7.05;1.42;;;17.40;99.90;;;;;;7375877;19;20611;-58
2022/10/24 09:18:41;;;;;;;7.97;1.70;;;17.20;99.90;;;;;;7368667;19;20435;-57
2022/10/24 09:21:08;;;;;;;10.32;2.17;;;17.00;99.90;;;;;;7374488;19;20538;-57
2022/10/24 09:23:36;;;;;;;7.15;2.47;;;16.90;99.90;;;;;;7372747;19;20019;-57
2022/10/24 09:26:07;;;;;;;8.60;1.63;;;16.90;99.90;;;;;;7369867;19;20304;-57
2022/10/24 09:28:38;;;;;;;7.68;2.58;;;16.80;99.90;;;;;;7368394;19;20104;-58
2022/10/24 09:31:17;;;;;;;8.20;1.98;;;16.80;99.90;;;;;;7375328;19;20016;-58
2022/10/24 09:33:45;;;;;;;4.78;1.38;;;16.80;99.90;;;;;;7375056;19;20486;-48
2022/10/24 09:36:14;;;;;;;7.30;1.48;;;16.90;99.90;;;;;;7376721;19;20018;-58
2022/10/24 09:38:42;;;;;;;6.63;2.28;;;16.90;99.90;;;;;;7374042;19;20042;-57
2022/10/24 09:41:12;;;;;;;6.22;1.23;;;17.00;99.90;;;;;;7375259;19;20448;-58
2022/10/24 09:43:49;;;;;;;5.05;1.17;;;17.00;99.90;;;;;;7372450;19;20026;-46
2022/10/24 09:46:19;;;;;;;6.10;1.60;;;17.00;99.90;;;;;;7375669;19;20018;-48
2022/10/24 09:48:53;;;;;;;7.57;1.35;;;17.10;99.90;;;;;;7372173;19;20508;-48
2022/10/24 09:51:28;;;;;;;5.68;1.30;;;17.20;99.90;;;;;;7369986;19;20097;-47
2022/10/24 09:54:19;;;;;;;4.97;1.52;;;17.10;99.90;;;;;;7363454;19;20747;-49
2022/10/24 09:56:46;;;;;;;7.93;1.20;;;17.70;99.90;;;;;;7368325;19;20035;-47
2022/10/24 09:59:22;;;;;;;4.93;1.13;;;18.40;99.90;;;;;;7365684;19;20052;-47
2022/10/24 10:01:48;;;;;;;7.10;1.83;;;19.20;99.90;;;;;;7362466;19;20033;-58
2022/10/24 10:04:18;;;;;;;6.80;1.63;;;19.90;99.90;;;;;;7365502;19;20015;-58
2022/10/24 10:06:49;;;;;;;6.28;1.10;;;20.20;99.90;;;;;;7368271;19;20034;-60
2022/10/24 10:09:27;;;;;;;6.80;1.27;;;19.70;99.90;;;;;;7369738;19;20368;-58
2022/10/24 10:11:58;;;;;;;6.22;1.17;;;19.20;99.90;;;;;;7368519;19;20038;-46
2022/10/24 10:14:28;;;;;;;3.83;0.90;;;18.50;99.90;;;;;;7369998;19;20405;-46
2022/10/24 10:17:05;;;;;;;3.97;1.05;;;18.30;99.90;;;;;;7366138;19;20026;-59
2022/10/24 10:19:35;;;;;;;3.92;1.05;;;18.10;99.90;;;;;;7367975;19;20023;-58
2022/10/24 10:22:19;;;;;;;6.28;1.23;;;18.30;99.90;;;;;;7364930;19;20497;-58
2022/10/24 10:24:46;;;;;;;3.90;1.10;;;18.90;99.90;;;;;;7366205;19;20485;-60
2022/10/24 10:27:30;;;;;;;3.03;1.02;;;19.60;99.90;;;;;;7367099;19;20018;-59
2022/10/24 10:30:06;;;;;;;4.93;1.35;;;20.40;99.90;;;;;;7366640;19;20018;-59
2022/10/24 10:32:43;;;;;;;5.30;1.30;;;20.50;99.90;;;;;;7367022;19;21306;-59
2022/10/24 10:35:25;;;;;;;3.88;1.02;;;20.10;99.90;;;;;;7365877;19;20019;-59
2022/10/24 10:37:56;;;;;;;3.63;0.65;;;19.30;99.90;;;;;;7365840;19;20038;-59
2022/10/24 10:40:54;;;;;;;5.47;0.93;;;20.00;99.90;;;;;;7366856;19;20040;-59
2022/10/24 10:43:35;;;;;;;4.80;0.88;;;20.90;99.90;;;;;;7365859;19;20449;-60
2022/10/24 10:46:11;;;;;;;5.85;1.08;;;21.20;99.90;;;;;;7359682;19;20022;-60
2022/10/24 10:49:04;;;;;;;3.38;0.82;;;21.20;99.90;;;;;;7368389;19;20580;-58
2022/10/24 10:51:39;;;;;;;2.55;0.90;;;21.30;99.90;;;;;;7366393;19;20050;-58
2022/10/24 10:54:24;;;;;;;4.30;1.00;;;20.70;99.90;;;;;;7365024;19;20014;-57
2022/10/24 10:57:10;;;;;;;6.40;1.38;;;20.90;99.90;;;;;;7362247;19;20106;-57
2022/10/24 11:00:01;;;;;;;4.95;1.00;;;21.60;99.90;;;;;;7362974;19;20018;-57
2022/10/24 11:02:58;;;;;;;4.15;0.95;;;21.70;99.90;;;;;;7362418;19;20078;-57
2022/10/24 11:05:28;;;;;;;5.30;1.33;;;20.50;99.90;;;;;;7362634;19;20022;-59
2022/10/24 11:07:59;;;;;;;4.72;1.42;;;20.30;99.90;;;;;;7364833;19;20019;-59
2022/10/24 11:10:31;;;;;;;5.15;1.02;;;20.50;99.90;;;;;;7364892;19;20477;-59
2022/10/24 11:13:02;;;;;;;4.10;0.73;;;21.30;99.90;;;;;;7363017;19;20018;-59
2022/10/24 11:15:45;;;;;;;5.65;1.35;;;21.40;99.90;;;;;;7364923;19;20029;-59
2022/10/24 11:18:19;;;;;;;7.13;1.52;;;21.10;99.90;;;;;;7366093;19;20044;-62
2022/10/24 11:20:52;;;;;;;5.38;1.33;;;20.90;99.90;;;;;;7359922;19;20633;-59
2022/10/24 11:23:28;;;;;;;7.32;1.30;;;20.30;99.90;;;;;;7369416;19;20414;-59
2022/10/24 11:26:25;;;;;;;4.57;1.08;;;19.90;99.90;;;;;;7365134;19;20087;-59
2022/10/24 11:28:58;;;;;;;3.03;1.02;;;19.50;99.90;;;;;;7366177;19;20106;-58
2022/10/24 11:31:40;;;;;;;5.22;0.98;;;19.60;99.90;;;;;;7366390;19;20418;-58
2022/10/24 11:34:25;;;;;;;5.60;1.40;;;20.20;99.90;;;;;;7369980;19;20022;-60
2022/10/24 11:37:07;;;;;;;5.10;1.23;;;19.90;99.90;;;;;;7368744;19;20022;-59
2022/10/24 11:39:55;;;;;;;4.15;1.02;;;19.30;99.90;;;;;;7369594;19;20035;-58
2022/10/24 11:42:46;;;;;;;4.68;1.30;;;18.80;99.90;;;;;;7369856;19;20028;-59
2022/10/24 11:45:18;;;;;;;3.65;0.80;;;18.80;99.90;;;;;;7368944;19;20082;-46
2022/10/24 11:48:18;;;;;;;5.18;1.20;;;18.90;99.90;;;;;;7364061;19;20018;-44
2022/10/24 11:50:48;;;;;;;5.38;1.38;;;19.20;99.90;;;;;;7365579;19;20029;-45
2022/10/24 11:53:30;;;;;;;2.25;0.70;;;19.80;99.90;;;;;;7359286;19;20015;-45
2022/10/24 11:56:39;;;;;;;5.70;0.98;;;19.80;99.90;;;;;;7364486;19;20022;-44
2022/10/24 11:59:24;;;;;;;5.47;1.02;;;19.60;99.90;;;;;;7358016;19;20106;-48
2022/10/24 12:01:53;;;;;;;5.07;1.00;;;19.50;99.90;;;;;;7360133;19;20022;-44
2022/10/24 12:04:34;;;;;;;5.05;1.33;;;18.90;99.90;;;;;;7361927;19;20019;-45
2022/10/24 12:07:34;;;;;;;7.18;1.42;;;18.60;99.90;;;;;;7363538;19;20038;-46
2022/10/24 12:10:25;;;;;;;5.55;1.60;;;18.80;99.90;;;;;;7362525;19;20063;-47
2022/10/24 12:13:13;;;;;;;5.10;1.38;;;18.60;99.90;;;;;;7360396;19;20010;-45
2022/10/24 12:15:42;;;;;;;3.70;1.25;;;18.00;99.90;;;;;;7362965;19;20365;-43
2022/10/24 12:18:29;;;;;;;5.80;1.27;;;18.40;99.90;;;;;;7358682;19;20044;-44
2022/10/24 12:21:11;;;;;;;10.32;1.08;;;18.50;99.90;;;;;;7364057;19;20018;-44
2022/10/24 12:23:39;;;;;;;3.70;1.00;;;18.50;99.90;;;;;;7361666;19;20018;-47
2022/10/24 12:26:17;;;;;;;4.03;0.82;;;18.80;99.90;;;;;;7361782;19;20021;-45
2022/10/24 12:28:53;;;;;;;5.30;0.80;;;19.40;99.90;;;;;;7362960;19;20115;-46
2022/10/24 12:31:22;;;;;;;5.25;1.00;;;19.20;99.90;;;;;;7364125;19;20061;-44
2022/10/24 12:34:15;;;;;;;4.47;0.75;;;19.80;99.90;;;;;;7359583;19;20022;-44
2022/10/24 12:37:16;;;;;;;5.50;0.73;;;19.80;99.90;;;;;;7364794;19;21914;-45
2022/10/24 12:39:47;;;;;;;5.65;1.77;;;19.30;99.90;;;;;;7360998;19;20015;-46
2022/10/24 12:42:36;;;;;;;4.65;1.13;;;18.90;99.90;;;;;;7364557;19;20022;-46
2022/10/24 12:45:11;;;;;;;4.95;0.85;;;19.00;99.90;;;;;;7360962;19;20709;-45
2022/10/24 12:47:40;;;;;;;3.08;0.90;;;19.10;99.90;;;;;;7366650;19;20112;-44
2022/10/24 12:50:22;;;;;;;4.43;1.17;;;19.30;99.90;;;;;;7362749;19;20026;-46
2022/10/24 12:52:50;;;;;;;;;;;18.70;99.90;;;;;;7364646;19;20034;-45
2022/10/24 12:55:35;;;;;;;6.93;1.30;;;18.40;99.90;;;;;;7363062;19;19923;-46
2022/10/24 12:58:27;;;;;;;4.25;0.82;;;18.50;99.90;;;;;;7363482;19;20010;-43
2022/10/24 13:01:01;;;;;;;;;;;18.10;99.90;;;;;;7363380;19;20263;-45
2022/10/24 13:03:54;;;;;;;5.80;1.25;;;17.90;99.90;;;;;;7362756;19;19945;-46
2022/10/24 13:06:35;;;;;;;3.97;1.05;;;17.90;99.90;;;;;;7360735;19;20049;-46
2022/10/24 13:09:34;;;;;;;3.85;1.13;;;17.80;99.90;;;;;;7363372;19;20102;-47
2022/10/24 13:12:12;;;;;;;6.78;1.08;;;17.70;99.90;;;;;;7361200;19;20015;-47